sensor_id;sensor_type;location;lat;lon;timestamp;P1;durP1;ratioP1;P2;durP2;ratioP2
20478;SDS011;10398;52.490;13.434;2023-06-01T00:02:19;7.82;;;1.90;;
20478;SDS011;10398;52.490;13.434;2023-06-01T00:04:45;4.18;;;1.40;;
20478;SDS011;10398;52.490;13.434;2023-06-01T00:07:13;3.67;;;1.20;;
20478;SDS011;10398;52.490;13.434;2023-06-01T00:09:39;4.93;;;1.50;;
20478;SDS011;10398;52.490;13.434;2023-06-01T00:12:05;7.57;;;1.30;;
20478;SDS011;10398;52.490;13.434;2023-06-01T00:14:31;2.75;;;1.30;;
20478;SDS011;10398;52.490;13.434;2023-06-01T00:16:56;3.65;;;1.10;;
20478;SDS011;10398;52.490;13.434;2023-06-01T00:19:23;5.07;;;1.20;;
20478;SDS011;10398;52.490;13.434;2023-06-01T00:21:51;3.30;;;1.25;;
20478;SDS011;10398;52.490;13.434;2023-06-01T00:24:19;3.38;;;1.20;;
20478;SDS011;10398;52.490;13.434;2023-06-01T00:26:46;4.15;;;1.20;;
20478;SDS011;10398;52.490;13.434;2023-06-01T00:29:11;3.42;;;1.40;;
20478;SDS011;10398;52.490;13.434;2023-06-01T00:31:38;2.88;;;1.20;;
20478;SDS011;10398;52.490;13.434;2023-06-01T00:34:04;3.05;;;1.00;;
20478;SDS011;10398;52.490;13.434;2023-06-01T00:36:29;2.67;;;1.10;;
20478;SDS011;10398;52.490;13.434;2023-06-01T00:38:56;3.97;;;1.30;;
20478;SDS011;10398;52.490;13.434;2023-06-01T00:41:27;5.00;;;1.20;;
20478;SDS011;10398;52.490;13.434;2023-06-01T00:43:53;4.70;;;1.30;;
20478;SDS011;10398;52.490;13.434;2023-06-01T00:46:18;3.63;;;1.20;;
20478;SDS011;10398;52.490;13.434;2023-06-01T00:48:44;5.00;;;1.10;;
20478;SDS011;10398;52.490;13.434;2023-06-01T00:51:10;10.02;;;1.27;;
20478;SDS011;10398;52.490;13.434;2023-06-01T00:53:37;2.85;;;1.20;;
20478;SDS011;10398;52.490;13.434;2023-06-01T00:56:03;5.13;;;1.17;;
20478;SDS011;10398;52.490;13.434;2023-06-01T00:58:29;3.10;;;1.40;;
20478;SDS011;10398;52.490;13.434;2023-06-01T01:00:55;7.88;;;1.30;;
20478;SDS011;10398;52.490;13.434;2023-06-01T01:03:21;7.43;;;1.23;;
20478;SDS011;10398;52.490;13.434;2023-06-01T01:05:50;5.15;;;1.20;;
20478;SDS011;10398;52.490;13.434;2023-06-01T01:08:31;1.52;;;0.95;;
20478;SDS011;10398;52.490;13.434;2023-06-01T01:11:17;2.35;;;0.95;;
20478;SDS011;10398;52.490;13.434;2023-06-01T01:14:01;1.80;;;1.10;;
20478;SDS011;10398;52.490;13.434;2023-06-01T01:17:00;2.67;;;1.10;;
20478;SDS011;10398;52.490;13.434;2023-06-01T01:22:18;3.22;;;1.20;;
20478;SDS011;10398;52.490;13.434;2023-06-01T01:28:08;6.55;;;1.08;;
20478;SDS011;10398;52.490;13.434;2023-06-01T01:30:54;3.30;;;1.15;;
20478;SDS011;10398;52.490;13.434;2023-06-01T01:33:21;2.45;;;1.00;;
20478;SDS011;10398;52.490;13.434;2023-06-01T01:35:49;2.85;;;0.95;;
20478;SDS011;10398;52.490;13.434;2023-06-01T01:38:16;2.05;;;1.10;;
20478;SDS011;10398;52.490;13.434;2023-06-01T01:40:41;4.55;;;0.90;;
20478;SDS011;10398;52.490;13.434;2023-06-01T01:43:07;4.95;;;1.35;;
20478;SDS011;10398;52.490;13.434;2023-06-01T01:45:33;3.42;;;1.13;;
20478;SDS011;10398;52.490;13.434;2023-06-01T01:48:15;4.72;;;1.50;;
20478;SDS011;10398;52.490;13.434;2023-06-01T01:50:52;4.85;;;1.23;;
20478;SDS011;10398;52.490;13.434;2023-06-01T01:53:22;4.88;;;1.30;;
20478;SDS011;10398;52.490;13.434;2023-06-01T01:55:51;5.28;;;1.25;;
20478;SDS011;10398;52.490;13.434;2023-06-01T01:58:18;4.00;;;1.38;;
20478;SDS011;10398;52.490;13.434;2023-06-01T02:00:44;4.57;;;1.20;;
20478;SDS011;10398;52.490;13.434;2023-06-01T02:03:14;2.95;;;1.10;;
20478;SDS011;10398;52.490;13.434;2023-06-01T02:05:41;7.53;;;1.40;;
20478;SDS011;10398;52.490;13.434;2023-06-01T02:08:07;3.80;;;1.30;;
20478;SDS011;10398;52.490;13.434;2023-06-01T02:10:32;6.95;;;1.52;;
20478;SDS011;10398;52.490;13.434;2023-06-01T02:12:58;7.38;;;1.40;;
20478;SDS011;10398;52.490;13.434;2023-06-01T02:15:24;9.23;;;1.38;;
20478;SDS011;10398;52.490;13.434;2023-06-01T02:17:50;3.60;;;1.10;;
20478;SDS011;10398;52.490;13.434;2023-06-01T02:20:16;5.38;;;1.52;;
20478;SDS011;10398;52.490;13.434;2023-06-01T02:22:42;5.65;;;1.25;;
20478;SDS011;10398;52.490;13.434;2023-06-01T02:25:08;3.15;;;1.48;;
20478;SDS011;10398;52.490;13.434;2023-06-01T02:27:34;5.88;;;1.30;;
20478;SDS011;10398;52.490;13.434;2023-06-01T02:29:59;4.70;;;1.40;;
20478;SDS011;10398;52.490;13.434;2023-06-01T02:32:25;6.10;;;1.48;;
20478;SDS011;10398;52.490;13.434;2023-06-01T02:34:51;3.90;;;1.40;;
20478;SDS011;10398;52.490;13.434;2023-06-01T02:37:17;3.22;;;1.23;;
20478;SDS011;10398;52.490;13.434;2023-06-01T02:39:43;6.43;;;1.48;;
20478;SDS011;10398;52.490;13.434;2023-06-01T02:42:08;3.47;;;1.40;;
20478;SDS011;10398;52.490;13.434;2023-06-01T02:44:34;7.47;;;1.58;;
20478;SDS011;10398;52.490;13.434;2023-06-01T02:47:00;4.15;;;1.45;;
20478;SDS011;10398;52.490;13.434;2023-06-01T02:49:25;2.17;;;1.23;;
20478;SDS011;10398;52.490;13.434;2023-06-01T02:51:51;3.42;;;1.50;;
20478;SDS011;10398;52.490;13.434;2023-06-01T02:54:16;2.17;;;1.33;;
20478;SDS011;10398;52.490;13.434;2023-06-01T02:56:42;3.83;;;1.27;;
20478;SDS011;10398;52.490;13.434;2023-06-01T02:59:08;4.95;;;1.50;;
20478;SDS011;10398;52.490;13.434;2023-06-01T03:01:33;3.20;;;1.40;;
20478;SDS011;10398;52.490;13.434;2023-06-01T03:04:01;2.92;;;1.55;;
20478;SDS011;10398;52.490;13.434;2023-06-01T03:06:29;3.47;;;1.30;;
20478;SDS011;10398;52.490;13.434;2023-06-01T03:09:02;5.28;;;1.65;;
20478;SDS011;10398;52.490;13.434;2023-06-01T03:11:28;3.15;;;1.60;;
20478;SDS011;10398;52.490;13.434;2023-06-01T03:13:54;5.13;;;1.63;;
20478;SDS011;10398;52.490;13.434;2023-06-01T03:16:21;4.35;;;1.70;;
20478;SDS011;10398;52.490;13.434;2023-06-01T03:18:48;3.63;;;1.75;;
20478;SDS011;10398;52.490;13.434;2023-06-01T03:21:13;7.85;;;1.92;;
20478;SDS011;10398;52.490;13.434;2023-06-01T03:23:41;5.35;;;1.80;;
20478;SDS011;10398;52.490;13.434;2023-06-01T03:26:09;6.25;;;1.98;;
20478;SDS011;10398;52.490;13.434;2023-06-01T03:28:37;2.60;;;1.58;;
20478;SDS011;10398;52.490;13.434;2023-06-01T03:31:03;3.42;;;1.83;;
20478;SDS011;10398;52.490;13.434;2023-06-01T03:33:29;5.95;;;1.73;;
20478;SDS011;10398;52.490;13.434;2023-06-01T03:35:55;7.03;;;2.20;;
20478;SDS011;10398;52.490;13.434;2023-06-01T03:38:21;7.28;;;2.05;;
20478;SDS011;10398;52.490;13.434;2023-06-01T03:40:47;4.50;;;2.45;;
20478;SDS011;10398;52.490;13.434;2023-06-01T03:43:12;8.57;;;1.95;;
20478;SDS011;10398;52.490;13.434;2023-06-01T03:45:38;9.15;;;2.50;;
20478;SDS011;10398;52.490;13.434;2023-06-01T03:48:04;5.75;;;1.90;;
20478;SDS011;10398;52.490;13.434;2023-06-01T03:50:30;7.28;;;2.13;;
20478;SDS011;10398;52.490;13.434;2023-06-01T03:52:56;6.10;;;2.00;;
20478;SDS011;10398;52.490;13.434;2023-06-01T03:55:21;6.63;;;2.87;;
20478;SDS011;10398;52.490;13.434;2023-06-01T03:57:47;4.82;;;2.60;;
20478;SDS011;10398;52.490;13.434;2023-06-01T04:00:13;6.43;;;2.15;;
20478;SDS011;10398;52.490;13.434;2023-06-01T04:02:55;7.28;;;2.17;;
20478;SDS011;10398;52.490;13.434;2023-06-01T04:05:23;4.80;;;2.40;;
20478;SDS011;10398;52.490;13.434;2023-06-01T04:07:51;5.87;;;2.70;;
20478;SDS011;10398;52.490;13.434;2023-06-01T04:10:17;6.93;;;3.03;;
20478;SDS011;10398;52.490;13.434;2023-06-01T04:12:44;10.63;;;2.67;;
20478;SDS011;10398;52.490;13.434;2023-06-01T04:15:11;10.67;;;2.90;;
20478;SDS011;10398;52.490;13.434;2023-06-01T04:17:38;8.13;;;2.77;;
20478;SDS011;10398;52.490;13.434;2023-06-01T04:20:04;5.63;;;2.53;;
20478;SDS011;10398;52.490;13.434;2023-06-01T04:22:31;9.67;;;2.80;;
20478;SDS011;10398;52.490;13.434;2023-06-01T04:24:57;9.87;;;2.87;;
20478;SDS011;10398;52.490;13.434;2023-06-01T04:27:23;6.80;;;2.43;;
20478;SDS011;10398;52.490;13.434;2023-06-01T04:29:49;7.37;;;2.47;;
20478;SDS011;10398;52.490;13.434;2023-06-01T04:32:16;11.03;;;3.20;;
20478;SDS011;10398;52.490;13.434;2023-06-01T04:34:46;9.80;;;2.73;;
20478;SDS011;10398;52.490;13.434;2023-06-01T04:37:15;6.67;;;2.50;;
20478;SDS011;10398;52.490;13.434;2023-06-01T04:39:44;8.37;;;3.13;;
20478;SDS011;10398;52.490;13.434;2023-06-01T04:42:13;8.97;;;2.90;;
20478;SDS011;10398;52.490;13.434;2023-06-01T04:44:42;7.50;;;3.10;;
20478;SDS011;10398;52.490;13.434;2023-06-01T04:47:08;7.90;;;3.10;;
20478;SDS011;10398;52.490;13.434;2023-06-01T04:49:34;13.43;;;3.53;;
20478;SDS011;10398;52.490;13.434;2023-06-01T04:52:02;14.90;;;3.20;;
20478;SDS011;10398;52.490;13.434;2023-06-01T04:54:29;21.27;;;3.90;;
20478;SDS011;10398;52.490;13.434;2023-06-01T04:56:55;11.90;;;3.40;;
20478;SDS011;10398;52.490;13.434;2023-06-01T04:59:20;16.17;;;4.63;;
20478;SDS011;10398;52.490;13.434;2023-06-01T05:01:46;9.33;;;3.80;;
20478;SDS011;10398;52.490;13.434;2023-06-01T05:04:12;12.33;;;4.00;;
20478;SDS011;10398;52.490;13.434;2023-06-01T05:06:37;12.53;;;4.30;;
20478;SDS011;10398;52.490;13.434;2023-06-01T05:09:04;8.50;;;3.77;;
20478;SDS011;10398;52.490;13.434;2023-06-01T05:11:30;9.27;;;3.90;;
20478;SDS011;10398;52.490;13.434;2023-06-01T05:13:55;9.77;;;4.57;;
20478;SDS011;10398;52.490;13.434;2023-06-01T05:16:26;15.00;;;5.30;;
20478;SDS011;10398;52.490;13.434;2023-06-01T05:18:52;9.47;;;4.50;;
20478;SDS011;10398;52.490;13.434;2023-06-01T05:21:18;12.83;;;4.77;;
20478;SDS011;10398;52.490;13.434;2023-06-01T05:23:44;8.50;;;3.73;;
20478;SDS011;10398;52.490;13.434;2023-06-01T05:26:09;9.33;;;3.83;;
20478;SDS011;10398;52.490;13.434;2023-06-01T05:28:35;12.50;;;3.83;;
20478;SDS011;10398;52.490;13.434;2023-06-01T05:31:01;11.10;;;4.23;;
20478;SDS011;10398;52.490;13.434;2023-06-01T05:33:27;17.30;;;4.63;;
20478;SDS011;10398;52.490;13.434;2023-06-01T05:35:53;10.30;;;4.53;;
20478;SDS011;10398;52.490;13.434;2023-06-01T05:38:18;16.43;;;5.67;;
20478;SDS011;10398;52.490;13.434;2023-06-01T05:40:45;15.87;;;5.80;;
20478;SDS011;10398;52.490;13.434;2023-06-01T05:43:11;9.23;;;4.90;;
20478;SDS011;10398;52.490;13.434;2023-06-01T05:45:36;14.60;;;5.37;;
20478;SDS011;10398;52.490;13.434;2023-06-01T05:48:02;10.80;;;4.03;;
20478;SDS011;10398;52.490;13.434;2023-06-01T05:50:28;13.13;;;4.63;;
20478;SDS011;10398;52.490;13.434;2023-06-01T05:52:54;12.47;;;6.20;;
20478;SDS011;10398;52.490;13.434;2023-06-01T05:55:19;14.87;;;6.53;;
20478;SDS011;10398;52.490;13.434;2023-06-01T05:57:45;12.87;;;5.97;;
20478;SDS011;10398;52.490;13.434;2023-06-01T06:00:11;15.87;;;7.13;;
20478;SDS011;10398;52.490;13.434;2023-06-01T06:02:38;12.43;;;4.90;;
20478;SDS011;10398;52.490;13.434;2023-06-01T06:05:05;11.73;;;5.23;;
20478;SDS011;10398;52.490;13.434;2023-06-01T06:07:31;14.97;;;5.10;;
20478;SDS011;10398;52.490;13.434;2023-06-01T06:09:57;12.87;;;5.03;;
20478;SDS011;10398;52.490;13.434;2023-06-01T06:12:22;13.67;;;4.50;;
20478;SDS011;10398;52.490;13.434;2023-06-01T06:14:48;8.37;;;3.60;;
20478;SDS011;10398;52.490;13.434;2023-06-01T06:17:14;10.20;;;4.63;;
20478;SDS011;10398;52.490;13.434;2023-06-01T06:19:40;9.80;;;4.13;;
20478;SDS011;10398;52.490;13.434;2023-06-01T06:22:08;12.23;;;4.03;;
20478;SDS011;10398;52.490;13.434;2023-06-01T06:24:34;8.53;;;4.37;;
20478;SDS011;10398;52.490;13.434;2023-06-01T06:27:00;11.03;;;4.23;;
20478;SDS011;10398;52.490;13.434;2023-06-01T06:29:26;11.77;;;4.27;;
20478;SDS011;10398;52.490;13.434;2023-06-01T06:31:52;11.80;;;4.33;;
20478;SDS011;10398;52.490;13.434;2023-06-01T06:34:18;10.80;;;3.97;;
20478;SDS011;10398;52.490;13.434;2023-06-01T06:36:43;13.97;;;4.33;;
20478;SDS011;10398;52.490;13.434;2023-06-01T06:39:09;8.30;;;4.07;;
20478;SDS011;10398;52.490;13.434;2023-06-01T06:41:35;7.87;;;4.00;;
20478;SDS011;10398;52.490;13.434;2023-06-01T06:44:01;5.93;;;3.03;;
20478;SDS011;10398;52.490;13.434;2023-06-01T06:46:27;7.23;;;3.10;;
20478;SDS011;10398;52.490;13.434;2023-06-01T06:48:52;10.10;;;3.73;;
20478;SDS011;10398;52.490;13.434;2023-06-01T06:51:19;22.83;;;4.43;;
20478;SDS011;10398;52.490;13.434;2023-06-01T06:53:44;10.53;;;3.43;;
20478;SDS011;10398;52.490;13.434;2023-06-01T06:56:10;9.50;;;3.53;;
20478;SDS011;10398;52.490;13.434;2023-06-01T06:58:36;19.77;;;4.07;;
20478;SDS011;10398;52.490;13.434;2023-06-01T07:01:04;10.53;;;3.73;;
20478;SDS011;10398;52.490;13.434;2023-06-01T07:03:30;10.23;;;3.10;;
20478;SDS011;10398;52.490;13.434;2023-06-01T07:05:57;7.97;;;3.27;;
20478;SDS011;10398;52.490;13.434;2023-06-01T07:08:23;7.40;;;3.60;;
20478;SDS011;10398;52.490;13.434;2023-06-01T07:10:48;8.65;;;3.10;;
20478;SDS011;10398;52.490;13.434;2023-06-01T07:13:14;14.47;;;4.23;;
20478;SDS011;10398;52.490;13.434;2023-06-01T07:15:40;10.83;;;3.50;;
20478;SDS011;10398;52.490;13.434;2023-06-01T07:18:05;9.73;;;3.60;;
20478;SDS011;10398;52.490;13.434;2023-06-01T07:20:31;10.82;;;3.58;;
20478;SDS011;10398;52.490;13.434;2023-06-01T07:22:57;7.05;;;3.42;;
20478;SDS011;10398;52.490;13.434;2023-06-01T07:25:23;7.25;;;3.00;;
20478;SDS011;10398;52.490;13.434;2023-06-01T07:27:49;11.07;;;3.50;;
20478;SDS011;10398;52.490;13.434;2023-06-01T07:30:15;14.15;;;4.03;;
20478;SDS011;10398;52.490;13.434;2023-06-01T07:32:41;9.52;;;3.83;;
20478;SDS011;10398;52.490;13.434;2023-06-01T07:35:08;12.48;;;4.03;;
20478;SDS011;10398;52.490;13.434;2023-06-01T07:37:34;9.70;;;3.43;;
20478;SDS011;10398;52.490;13.434;2023-06-01T07:40:00;9.05;;;3.35;;
20478;SDS011;10398;52.490;13.434;2023-06-01T07:42:26;6.32;;;3.13;;
20478;SDS011;10398;52.490;13.434;2023-06-01T07:44:52;10.50;;;3.28;;
20478;SDS011;10398;52.490;13.434;2023-06-01T07:47:18;9.73;;;3.33;;
20478;SDS011;10398;52.490;13.434;2023-06-01T07:49:44;10.18;;;3.10;;
20478;SDS011;10398;52.490;13.434;2023-06-01T07:52:10;9.38;;;3.30;;
20478;SDS011;10398;52.490;13.434;2023-06-01T07:54:36;7.00;;;3.25;;
20478;SDS011;10398;52.490;13.434;2023-06-01T07:57:02;5.15;;;3.42;;
20478;SDS011;10398;52.490;13.434;2023-06-01T07:59:29;9.85;;;3.65;;
20478;SDS011;10398;52.490;13.434;2023-06-01T08:01:56;7.40;;;3.10;;
20478;SDS011;10398;52.490;13.434;2023-06-01T08:04:22;8.68;;;3.10;;
20478;SDS011;10398;52.490;13.434;2023-06-01T08:06:49;7.93;;;3.67;;
20478;SDS011;10398;52.490;13.434;2023-06-01T08:09:18;8.93;;;3.28;;
20478;SDS011;10398;52.490;13.434;2023-06-01T08:11:46;12.05;;;3.22;;
20478;SDS011;10398;52.490;13.434;2023-06-01T08:14:13;7.78;;;2.75;;
20478;SDS011;10398;52.490;13.434;2023-06-01T08:16:38;11.13;;;3.72;;
20478;SDS011;10398;52.490;13.434;2023-06-01T08:19:04;6.70;;;3.35;;
20478;SDS011;10398;52.490;13.434;2023-06-01T08:21:30;7.95;;;3.22;;
20478;SDS011;10398;52.490;13.434;2023-06-01T08:23:56;10.40;;;3.38;;
20478;SDS011;10398;52.490;13.434;2023-06-01T08:26:22;14.63;;;3.75;;
20478;SDS011;10398;52.490;13.434;2023-06-01T08:28:49;8.02;;;3.10;;
20478;SDS011;10398;52.490;13.434;2023-06-01T08:31:21;10.35;;;3.65;;
20478;SDS011;10398;52.490;13.434;2023-06-01T08:33:48;8.45;;;3.05;;
20478;SDS011;10398;52.490;13.434;2023-06-01T08:36:16;9.23;;;3.92;;
20478;SDS011;10398;52.490;13.434;2023-06-01T08:38:43;8.82;;;3.40;;
20478;SDS011;10398;52.490;13.434;2023-06-01T08:41:20;6.80;;;3.33;;
20478;SDS011;10398;52.490;13.434;2023-06-01T08:43:54;11.63;;;4.30;;
20478;SDS011;10398;52.490;13.434;2023-06-01T08:46:25;9.05;;;3.55;;
20478;SDS011;10398;52.490;13.434;2023-06-01T08:48:52;6.57;;;2.72;;
20478;SDS011;10398;52.490;13.434;2023-06-01T08:51:20;8.65;;;3.17;;
20478;SDS011;10398;52.490;13.434;2023-06-01T08:53:47;11.40;;;3.10;;
20478;SDS011;10398;52.490;13.434;2023-06-01T08:56:14;9.15;;;3.15;;
20478;SDS011;10398;52.490;13.434;2023-06-01T08:58:40;8.27;;;2.83;;
20478;SDS011;10398;52.490;13.434;2023-06-01T09:01:08;7.18;;;3.28;;
20478;SDS011;10398;52.490;13.434;2023-06-01T09:03:35;13.38;;;5.03;;
20478;SDS011;10398;52.490;13.434;2023-06-01T09:06:01;16.98;;;6.53;;
20478;SDS011;10398;52.490;13.434;2023-06-01T09:08:28;8.98;;;3.13;;
20478;SDS011;10398;52.490;13.434;2023-06-01T09:10:54;6.65;;;2.60;;
20478;SDS011;10398;52.490;13.434;2023-06-01T09:13:38;8.15;;;3.10;;
20478;SDS011;10398;52.490;13.434;2023-06-01T09:16:05;6.28;;;2.53;;
20478;SDS011;10398;52.490;13.434;2023-06-01T09:18:31;6.28;;;3.15;;
20478;SDS011;10398;52.490;13.434;2023-06-01T09:21:10;9.25;;;3.10;;
20478;SDS011;10398;52.490;13.434;2023-06-01T09:23:36;10.50;;;3.33;;
20478;SDS011;10398;52.490;13.434;2023-06-01T09:26:06;8.40;;;3.00;;
20478;SDS011;10398;52.490;13.434;2023-06-01T09:34:06;10.73;;;3.03;;
20478;SDS011;10398;52.490;13.434;2023-06-01T09:36:43;11.13;;;3.22;;
20478;SDS011;10398;52.490;13.434;2023-06-01T09:39:13;11.60;;;3.10;;
20478;SDS011;10398;52.490;13.434;2023-06-01T09:46:56;14.32;;;3.42;;
20478;SDS011;10398;52.490;13.434;2023-06-01T09:49:26;15.52;;;3.53;;
20478;SDS011;10398;52.490;13.434;2023-06-01T09:54:37;13.20;;;3.40;;
20478;SDS011;10398;52.490;13.434;2023-06-01T09:57:05;7.43;;;3.20;;
20478;SDS011;10398;52.490;13.434;2023-06-01T10:02:10;8.55;;;4.07;;
20478;SDS011;10398;52.490;13.434;2023-06-01T10:04:40;13.27;;;3.90;;
20478;SDS011;10398;52.490;13.434;2023-06-01T10:07:09;13.15;;;4.65;;
20478;SDS011;10398;52.490;13.434;2023-06-01T10:09:38;9.63;;;3.70;;
20478;SDS011;10398;52.490;13.434;2023-06-01T10:12:06;9.07;;;4.07;;
20478;SDS011;10398;52.490;13.434;2023-06-01T10:14:35;9.63;;;4.10;;
20478;SDS011;10398;52.490;13.434;2023-06-01T10:17:02;8.95;;;4.35;;
20478;SDS011;10398;52.490;13.434;2023-06-01T10:19:28;8.27;;;4.43;;
20478;SDS011;10398;52.490;13.434;2023-06-01T10:21:56;11.93;;;4.90;;
20478;SDS011;10398;52.490;13.434;2023-06-01T10:24:22;10.15;;;5.00;;
20478;SDS011;10398;52.490;13.434;2023-06-01T10:29:23;7.82;;;4.32;;
20478;SDS011;10398;52.490;13.434;2023-06-01T10:31:51;10.57;;;4.57;;
20478;SDS011;10398;52.490;13.434;2023-06-01T10:34:40;9.27;;;4.68;;
20478;SDS011;10398;52.490;13.434;2023-06-01T10:39:33;12.02;;;4.40;;
20478;SDS011;10398;52.490;13.434;2023-06-01T10:47:03;11.60;;;4.95;;
20478;SDS011;10398;52.490;13.434;2023-06-01T10:55:37;11.70;;;4.68;;
20478;SDS011;10398;52.490;13.434;2023-06-01T10:57:41;10.32;;;5.55;;
20478;SDS011;10398;52.490;13.434;2023-06-01T11:08:01;13.57;;;5.53;;
20478;SDS011;10398;52.490;13.434;2023-06-01T11:13:34;12.98;;;5.45;;
20478;SDS011;10398;52.490;13.434;2023-06-01T11:18:42;10.75;;;5.38;;
20478;SDS011;10398;52.490;13.434;2023-06-01T11:21:23;10.70;;;5.72;;
20478;SDS011;10398;52.490;13.434;2023-06-01T11:23:50;13.38;;;5.05;;
20478;SDS011;10398;52.490;13.434;2023-06-01T11:26:19;29.15;;;8.13;;
20478;SDS011;10398;52.490;13.434;2023-06-01T11:28:47;15.23;;;6.13;;
20478;SDS011;10398;52.490;13.434;2023-06-01T11:31:17;12.25;;;5.38;;
20478;SDS011;10398;52.490;13.434;2023-06-01T11:33:53;11.90;;;5.88;;
20478;SDS011;10398;52.490;13.434;2023-06-01T11:36:22;15.35;;;5.75;;
20478;SDS011;10398;52.490;13.434;2023-06-01T11:38:49;15.63;;;5.97;;
20478;SDS011;10398;52.490;13.434;2023-06-01T11:41:16;14.20;;;5.60;;
20478;SDS011;10398;52.490;13.434;2023-06-01T11:43:43;13.35;;;6.00;;
20478;SDS011;10398;52.490;13.434;2023-06-01T11:46:09;10.48;;;5.13;;
20478;SDS011;10398;52.490;13.434;2023-06-01T11:48:35;9.27;;;5.22;;
20478;SDS011;10398;52.490;13.434;2023-06-01T11:51:01;13.00;;;5.57;;
20478;SDS011;10398;52.490;13.434;2023-06-01T11:53:31;9.40;;;4.80;;
20478;SDS011;10398;52.490;13.434;2023-06-01T11:55:57;10.18;;;5.03;;
20478;SDS011;10398;52.490;13.434;2023-06-01T11:58:23;12.60;;;5.78;;
20478;SDS011;10398;52.490;13.434;2023-06-01T12:00:53;9.25;;;5.13;;
20478;SDS011;10398;52.490;13.434;2023-06-01T12:03:20;7.57;;;4.85;;
20478;SDS011;10398;52.490;13.434;2023-06-01T12:05:46;13.45;;;5.07;;
20478;SDS011;10398;52.490;13.434;2023-06-01T12:08:14;11.95;;;5.65;;
20478;SDS011;10398;52.490;13.434;2023-06-01T12:10:45;15.57;;;5.57;;
20478;SDS011;10398;52.490;13.434;2023-06-01T12:13:15;25.85;;;5.65;;
20478;SDS011;10398;52.490;13.434;2023-06-01T12:15:42;19.33;;;5.40;;
20478;SDS011;10398;52.490;13.434;2023-06-01T12:18:08;24.88;;;5.65;;
20478;SDS011;10398;52.490;13.434;2023-06-01T12:20:37;16.20;;;4.90;;
20478;SDS011;10398;52.490;13.434;2023-06-01T12:28:18;15.15;;;4.82;;
20478;SDS011;10398;52.490;13.434;2023-06-01T12:30:46;16.80;;;4.63;;
20478;SDS011;10398;52.490;13.434;2023-06-01T12:33:31;8.68;;;3.97;;
20478;SDS011;10398;52.490;13.434;2023-06-01T12:36:04;14.70;;;4.32;;
20478;SDS011;10398;52.490;13.434;2023-06-01T12:38:50;8.68;;;3.95;;
20478;SDS011;10398;52.490;13.434;2023-06-01T12:41:17;13.27;;;4.50;;
20478;SDS011;10398;52.490;13.434;2023-06-01T12:43:44;12.35;;;4.10;;
20478;SDS011;10398;52.490;13.434;2023-06-01T12:46:43;8.05;;;3.80;;
20478;SDS011;10398;52.490;13.434;2023-06-01T12:49:15;12.32;;;4.65;;
20478;SDS011;10398;52.490;13.434;2023-06-01T12:51:42;8.00;;;4.18;;
20478;SDS011;10398;52.490;13.434;2023-06-01T12:54:08;9.38;;;3.55;;
20478;SDS011;10398;52.490;13.434;2023-06-01T12:56:34;11.98;;;3.78;;
20478;SDS011;10398;52.490;13.434;2023-06-01T12:59:00;9.90;;;4.30;;
20478;SDS011;10398;52.490;13.434;2023-06-01T13:01:25;12.88;;;3.80;;
20478;SDS011;10398;52.490;13.434;2023-06-01T13:03:53;8.23;;;3.90;;
20478;SDS011;10398;52.490;13.434;2023-06-01T13:06:20;5.45;;;3.22;;
20478;SDS011;10398;52.490;13.434;2023-06-01T13:08:46;9.90;;;3.63;;
20478;SDS011;10398;52.490;13.434;2023-06-01T13:11:12;10.05;;;3.67;;
20478;SDS011;10398;52.490;13.434;2023-06-01T13:13:38;9.05;;;4.05;;
20478;SDS011;10398;52.490;13.434;2023-06-01T13:16:04;12.65;;;4.00;;
20478;SDS011;10398;52.490;13.434;2023-06-01T13:18:32;9.48;;;4.20;;
20478;SDS011;10398;52.490;13.434;2023-06-01T13:20:57;8.95;;;3.70;;
20478;SDS011;10398;52.490;13.434;2023-06-01T13:23:23;8.68;;;3.67;;
20478;SDS011;10398;52.490;13.434;2023-06-01T13:25:49;10.27;;;3.58;;
20478;SDS011;10398;52.490;13.434;2023-06-01T13:28:14;9.50;;;3.50;;
20478;SDS011;10398;52.490;13.434;2023-06-01T13:30:40;10.93;;;3.03;;
20478;SDS011;10398;52.490;13.434;2023-06-01T13:33:07;16.67;;;6.07;;
20478;SDS011;10398;52.490;13.434;2023-06-01T13:35:33;10.32;;;4.10;;
20478;SDS011;10398;52.490;13.434;2023-06-01T13:37:59;7.45;;;3.33;;
20478;SDS011;10398;52.490;13.434;2023-06-01T13:40:24;8.50;;;3.38;;
20478;SDS011;10398;52.490;13.434;2023-06-01T13:42:51;6.50;;;3.10;;
20478;SDS011;10398;52.490;13.434;2023-06-01T13:45:17;7.05;;;3.33;;
20478;SDS011;10398;52.490;13.434;2023-06-01T13:47:44;8.90;;;2.95;;
20478;SDS011;10398;52.490;13.434;2023-06-01T13:50:10;7.85;;;3.10;;
20478;SDS011;10398;52.490;13.434;2023-06-01T13:52:37;5.13;;;2.55;;
20478;SDS011;10398;52.490;13.434;2023-06-01T13:55:04;11.07;;;3.15;;
20478;SDS011;10398;52.490;13.434;2023-06-01T13:57:31;5.97;;;3.03;;
20478;SDS011;10398;52.490;13.434;2023-06-01T13:59:58;6.78;;;2.47;;
20478;SDS011;10398;52.490;13.434;2023-06-01T14:02:23;5.10;;;2.47;;
20478;SDS011;10398;52.490;13.434;2023-06-01T14:04:49;8.95;;;2.85;;
20478;SDS011;10398;52.490;13.434;2023-06-01T14:07:15;9.82;;;2.97;;
20478;SDS011;10398;52.490;13.434;2023-06-01T14:09:41;7.72;;;3.05;;
20478;SDS011;10398;52.490;13.434;2023-06-01T14:12:08;8.13;;;3.25;;
20478;SDS011;10398;52.490;13.434;2023-06-01T14:14:34;8.35;;;3.30;;
20478;SDS011;10398;52.490;13.434;2023-06-01T14:16:59;8.02;;;3.10;;
20478;SDS011;10398;52.490;13.434;2023-06-01T14:19:25;8.00;;;3.22;;
20478;SDS011;10398;52.490;13.434;2023-06-01T14:21:52;6.80;;;2.88;;
20478;SDS011;10398;52.490;13.434;2023-06-01T14:24:18;9.50;;;3.03;;
20478;SDS011;10398;52.490;13.434;2023-06-01T14:26:43;9.63;;;2.95;;
20478;SDS011;10398;52.490;13.434;2023-06-01T14:29:09;5.93;;;2.95;;
20478;SDS011;10398;52.490;13.434;2023-06-01T14:31:35;4.93;;;2.67;;
20478;SDS011;10398;52.490;13.434;2023-06-01T14:34:01;7.68;;;3.08;;
20478;SDS011;10398;52.490;13.434;2023-06-01T14:36:27;5.95;;;2.83;;
20478;SDS011;10398;52.490;13.434;2023-06-01T14:38:53;7.40;;;2.63;;
20478;SDS011;10398;52.490;13.434;2023-06-01T14:41:18;10.02;;;2.90;;
20478;SDS011;10398;52.490;13.434;2023-06-01T14:43:44;7.82;;;3.38;;
20478;SDS011;10398;52.490;13.434;2023-06-01T14:46:10;8.70;;;3.10;;
20478;SDS011;10398;52.490;13.434;2023-06-01T14:48:36;8.05;;;3.28;;
20478;SDS011;10398;52.490;13.434;2023-06-01T14:51:02;6.53;;;2.95;;
20478;SDS011;10398;52.490;13.434;2023-06-01T14:53:27;4.93;;;3.22;;
20478;SDS011;10398;52.490;13.434;2023-06-01T14:55:53;6.63;;;3.40;;
20478;SDS011;10398;52.490;13.434;2023-06-01T14:58:19;9.93;;;3.20;;
20478;SDS011;10398;52.490;13.434;2023-06-01T15:00:44;6.53;;;2.78;;
20478;SDS011;10398;52.490;13.434;2023-06-01T15:03:11;7.05;;;3.42;;
20478;SDS011;10398;52.490;13.434;2023-06-01T15:05:36;7.88;;;3.10;;
20478;SDS011;10398;52.490;13.434;2023-06-01T15:08:04;6.72;;;3.00;;
20478;SDS011;10398;52.490;13.434;2023-06-01T15:10:30;8.15;;;3.28;;
20478;SDS011;10398;52.490;13.434;2023-06-01T15:12:56;27.08;;;12.20;;
20478;SDS011;10398;52.490;13.434;2023-06-01T15:15:21;5.93;;;3.45;;
20478;SDS011;10398;52.490;13.434;2023-06-01T15:17:47;8.70;;;2.88;;
20478;SDS011;10398;52.490;13.434;2023-06-01T15:20:13;7.15;;;3.03;;
20478;SDS011;10398;52.490;13.434;2023-06-01T15:22:39;7.60;;;3.25;;
20478;SDS011;10398;52.490;13.434;2023-06-01T15:25:05;8.20;;;3.20;;
20478;SDS011;10398;52.490;13.434;2023-06-01T15:27:31;8.07;;;3.10;;
20478;SDS011;10398;52.490;13.434;2023-06-01T15:29:56;4.90;;;2.92;;